Time;durP1;ratioP1;P1;durP2;ratioP2;P2;SDS_P1;SDS_P2;PMS_P1;PMS_P2;Temp;Humidity;BMP_temperature;BMP_pressure;BME280_temperature;BME280_humidity;BME280_pressure;Samples;Min_cycle;Max_cycle;Signal;HPM_P1;HPM_P2
2023/10/04 00:02:06;;;;;;;1.88;0.90;;;;;;;10.78;79.15;101605.50;5001728;28;20042;-83
2023/10/04 00:04:34;;;;;;;2.95;1.00;;;;;;;10.87;78.52;101615.16;4996079;28;20046;-81
2023/10/04 00:07:03;;;;;;;2.95;0.90;;;;;;;10.73;78.91;101609.88;5000723;28;20048;-81
2023/10/04 00:09:31;;;;;;;2.25;1.00;;;;;;;10.75;79.15;101605.50;4995590;28;20189;-85
2023/10/04 00:11:59;;;;;;;3.22;1.05;;;;;;;11.19;77.39;101606.44;5001331;28;20042;-81
2023/10/04 00:14:26;;;;;;;2.45;0.95;;;;;;;11.22;76.89;101606.44;4975966;28;20046;-83
2023/10/04 00:16:54;;;;;;;2.80;1.00;;;;;;;11.08;77.43;101606.44;4988942;28;20045;-81
2023/10/04 00:19:21;;;;;;;2.63;1.02;;;;;;;11.13;76.90;101606.44;4976804;28;20042;-87
2023/10/04 00:21:48;;;;;;;4.32;1.15;;;;;;;11.22;76.25;101610.84;4996963;28;20105;-84
2023/10/04 00:24:15;;;;;;;3.03;1.00;;;;;;;11.09;76.91;101613.47;4991096;28;20060;-81
2023/10/04 00:26:42;;;;;;;2.20;0.85;;;;;;;11.19;76.32;101608.22;4997415;28;20124;-81
2023/10/04 00:29:09;;;;;;;2.80;0.70;;;;;;;11.01;76.89;101604.69;4989057;28;20052;-84
2023/10/04 00:31:36;;;;;;;4.88;0.93;;;;;;;11.09;76.52;101602.97;4999966;28;20050;-81
2023/10/04 00:34:03;;;;;;;2.53;1.27;;;;;;;11.10;76.20;101611.69;4998031;28;20050;-82
2023/10/04 00:36:30;;;;;;;2.40;1.10;;;;;;;11.14;75.78;101609.06;4994750;28;20053;-81
2023/10/04 00:38:57;;;;;;;3.08;0.77;;;;;;;11.09;75.97;101610.84;4977090;28;20133;-82
2023/10/04 00:41:24;;;;;;;3.05;1.10;;;;;;;11.01;76.17;101602.06;4970598;28;20050;-81
2023/10/04 00:43:51;;;;;;;2.38;0.88;;;;;;;11.18;75.33;101599.47;4979063;28;20050;-83
2023/10/04 00:46:22;;;;;;;2.08;0.85;;;;;;;11.21;75.08;101598.56;4976191;28;20046;-81
2023/10/04 00:48:49;;;;;;;1.30;0.70;;;;;;;11.15;75.43;101612.56;4976236;28;20132;-83
2023/10/04 00:51:22;;;;;;;2.53;0.88;;;;;;;11.21;75.30;101599.47;4973897;28;20516;-82
2023/10/04 00:53:49;;;;;;;2.72;1.00;;;;;;;11.36;74.81;101614.34;4975088;28;20043;-82
2023/10/04 00:56:16;;;;;;;4.32;1.40;;;;;;;11.36;74.63;101614.34;4956096;28;20042;-81
2023/10/04 00:58:45;;;;;;;2.10;1.02;;;;;;;11.43;74.16;101608.22;4975986;28;20511;-82
2023/10/04 01:01:14;;;;;;;2.28;0.90;;;;;;;11.38;74.50;101614.34;4971793;28;20141;-81
2023/10/04 01:03:41;;;;;;;2.47;0.90;;;;;;;11.29;74.88;101612.59;4980759;28;20058;-85
2023/10/04 01:06:09;;;;;;;3.50;0.70;;;;;;;11.14;75.25;101619.59;4976325;28;20046;-88
2023/10/04 01:08:37;;;;;;;2.95;1.02;;;;;;;11.08;75.84;101613.44;4980839;28;20052;-81
2023/10/04 01:11:06;;;;;;;2.15;1.00;;;;;;;11.07;75.76;101617.81;4974487;28;20047;-82
2023/10/04 01:13:33;;;;;;;4.10;1.02;;;;;;;11.10;75.48;101617.81;4974851;28;20132;-84
2023/10/04 01:15:59;;;;;;;1.52;0.88;;;;;;;10.99;75.65;101619.53;4988266;28;20100;-82
2023/10/04 01:18:30;;;;;;;1.70;0.63;;;;;;;10.94;75.95;101629.19;4964202;28;20057;-81
2023/10/04 01:20:57;;;;;;;2.70;1.17;;;;;;;10.90;75.93;101619.53;4993780;28;20108;-82
2023/10/04 01:23:24;;;;;;;2.35;0.82;;;;;;;10.89;76.00;101623.94;4972109;28;20034;-82
2023/10/04 01:25:51;;;;;;;2.92;1.20;;;;;;;10.92;75.77;101625.66;4997822;28;20065;-82
2023/10/04 01:28:26;;;;;;;1.90;0.90;;;;;;;10.82;76.20;101618.63;4991690;28;20049;-82
2023/10/04 01:30:56;;;;;;;2.88;1.00;;;;;;;10.91;75.63;101629.19;4997694;28;20140;-82
2023/10/04 01:33:23;;;;;;;4.43;0.88;;;;;;;10.87;75.62;101619.53;4975311;28;20542;-81
2023/10/04 01:35:53;;;;;;;1.90;0.70;;;;;;;10.82;75.56;101621.25;4994852;28;20057;-84
2023/10/04 01:38:32;;;;;;;4.45;0.80;;;;;;;10.82;75.75;101623.88;4993446;28;20042;-82
2023/10/04 01:40:59;;;;;;;2.90;0.80;;;;;;;10.91;75.34;101616.06;4988865;28;20054;-81
2023/10/04 01:43:27;;;;;;;3.13;0.80;;;;;;;10.93;75.21;101611.66;4971286;28;20055;-82
2023/10/04 01:45:57;;;;;;;2.63;1.00;;;;;;;10.90;75.22;101614.28;4979646;28;20100;-83
2023/10/04 01:48:27;;;;;;;2.95;0.80;;;;;;;10.88;75.18;101616.06;4988765;28;20057;-81
2023/10/04 01:50:56;;;;;;;1.52;0.80;;;;;;;10.97;74.76;101621.31;4999947;28;20045;-82
2023/10/04 01:53:24;;;;;;;1.60;0.90;;;;;;;10.89;75.02;101623.03;4992578;28;20409;-81
2023/10/04 01:55:51;;;;;;;3.05;0.93;;;;;;;10.83;75.53;101628.28;4988825;28;20042;-81
2023/10/04 01:58:23;;;;;;;3.05;0.90;;;;;;;10.76;75.80;101623.00;4967230;28;20053;-83
2023/10/04 02:00:50;;;;;;;3.25;1.00;;;;;;;10.68;76.15;101619.47;4991591;28;20042;-81
2023/10/04 02:03:17;;;;;;;2.40;0.88;;;;;;;10.66;76.04;101618.59;4992747;28;20046;-85
2023/10/04 02:05:45;;;;;;;3.63;1.10;;;;;;;10.67;76.13;101617.72;4986816;28;20045;-82
2023/10/04 02:08:12;;;;;;;3.08;0.80;;;;;;;10.74;75.73;101630.00;4986049;28;20045;-81
2023/10/04 02:10:43;;;;;;;3.10;1.00;;;;;;;10.63;75.98;101621.22;5002437;28;20060;-82
2023/10/04 02:13:15;;;;;;;2.50;0.95;;;;;;;10.64;76.27;101622.97;4988374;28;20133;-84
2023/10/04 02:15:53;;;;;;;2.20;0.73;;;;;;;10.61;76.05;101623.81;4985027;28;20050;-81
2023/10/04 02:18:21;;;;;;;1.88;0.70;;;;;;;10.47;76.76;101625.53;4992864;28;20126;-80
2023/10/04 02:20:49;;;;;;;1.60;0.80;;;;;;;10.57;76.49;101629.94;4979271;28;20137;-81
2023/10/04 02:23:17;;;;;;;3.20;1.00;;;;;;;10.30;76.95;101633.28;4976184;28;20121;-81
2023/10/04 02:25:44;;;;;;;4.10;1.05;;;;;;;10.15;78.02;101633.19;4977639;28;20050;-81
2023/10/04 02:28:11;;;;;;;2.05;0.73;;;;;;;10.22;77.76;101627.13;4972699;28;20046;-83
2023/10/04 02:30:38;;;;;;;2.70;0.65;;;;;;;10.46;76.95;101615.00;5004955;28;20050;-81
2023/10/04 02:33:13;;;;;;;5.68;0.88;;;;;;;10.30;76.71;101628.03;5002263;28;20033;-81
2023/10/04 02:35:44;;;;;;;4.30;0.77;;;;;;;10.29;77.28;101628.03;4996535;28;20049;-82
2023/10/04 02:38:23;;;;;;;1.65;0.60;;;;;;;10.36;77.27;101627.22;4980405;28;20060;-82
2023/10/04 02:40:50;;;;;;;2.28;0.95;;;;;;;10.40;76.75;101621.13;4994468;28;20105;-82
2023/10/04 02:43:21;;;;;;;2.90;1.30;;;;;;;10.09;77.90;101621.81;4998198;28;20056;-82
2023/10/04 02:45:49;;;;;;;3.50;1.00;;;;;;;9.89;78.59;101631.28;5003373;28;20119;-82
2023/10/04 02:48:16;;;;;;;4.40;1.75;;;;;;;9.97;78.22;101628.72;4998289;28;20041;-81
2023/10/04 02:50:44;;;;;;;4.28;1.10;;;;;;;10.15;77.59;101626.19;4958797;28;20050;-83
2023/10/04 02:53:17;;;;;;;3.92;0.90;;;;;;;9.81;78.32;101627.75;4987297;28;20069;-82
2023/10/04 02:55:47;;;;;;;3.33;0.70;;;;;;;10.14;77.63;101628.81;5000109;28;20066;-81
2023/10/04 02:58:16;;;;;;;3.22;0.68;;;;;;;10.16;76.82;101629.72;4996616;28;20056;-81
2023/10/04 03:00:49;;;;;;;2.47;0.70;;;;;;;9.88;77.56;101619.06;4998853;28;20077;-81
2023/10/04 03:03:24;;;;;;;2.17;0.70;;;;;;;10.01;77.48;101626.13;4996797;28;20061;-81
2023/10/04 03:05:54;;;;;;;2.55;0.85;;;;;;;9.89;77.53;101623.41;4980832;28;20042;-83
2023/10/04 03:08:23;;;;;;;1.10;0.70;;;;;;;9.81;77.49;101622.50;4973168;28;20058;-81
2023/10/04 03:10:50;;;;;;;2.70;0.77;;;;;;;9.74;77.56;101629.44;4985452;28;20053;-81
2023/10/04 03:13:27;;;;;;;2.33;0.68;;;;;;;9.87;77.44;101633.03;4990644;28;20053;-84
2023/10/04 03:15:54;;;;;;;1.48;0.80;;;;;;;9.62;78.69;101635.47;4997064;28;20050;-82
2023/10/04 03:18:25;;;;;;;1.83;0.77;;;;;;;9.78;78.35;101630.34;4996056;28;20050;-81
2023/10/04 03:23:34;;;;;;;2.22;0.85;;;;;;;9.89;77.71;101639.16;4992246;28;20046;-82
2023/10/04 03:26:03;;;;;;;3.90;0.90;;;;;;;9.77;77.81;101641.69;4996873;28;20066;-83
2023/10/04 03:28:33;;;;;;;2.38;0.60;;;;;;;9.57;78.39;101651.16;4991379;28;20168;-82
2023/10/04 03:31:04;;;;;;;2.60;1.02;;;;;;;9.81;78.11;101639.09;4984949;28;20472;-82
2023/10/04 03:33:37;;;;;;;1.90;0.60;;;;;;;9.79;77.59;101640.84;4988129;28;20061;-81
2023/10/04 03:36:04;;;;;;;3.53;0.63;;;;;;;9.58;78.67;101644.16;4999798;28;20057;-83
2023/10/04 03:38:34;;;;;;;4.38;1.05;;;;;;;9.74;77.89;101642.53;4963094;28;20058;-81
2023/10/04 03:41:03;;;;;;;6.10;0.88;;;;;;;9.80;77.36;101631.22;4984101;28;20050;-82
2023/10/04 03:43:30;;;;;;;2.20;0.60;;;;;;;10.01;76.55;101631.38;4992608;28;20045;-83
2023/10/04 03:45:58;;;;;;;2.28;1.13;;;;;;;9.66;77.61;101639.88;4991693;28;20049;-81
2023/10/04 03:48:26;;;;;;;2.30;0.80;;;;;;;9.24;78.57;101628.16;4992751;28;20077;-82
2023/10/04 03:50:53;;;;;;;2.72;0.75;;;;;;;9.38;79.18;101628.28;4994345;28;20068;-83
2023/10/04 03:53:23;;;;;;;1.73;0.85;;;;;;;9.55;78.07;101625.81;4977983;28;20045;-82
2023/10/04 03:55:49;;;;;;;1.27;0.73;;;;;;;9.39;77.87;101624.78;4998468;28;20096;-82
2023/10/04 03:58:18;;;;;;;2.10;0.85;;;;;;;9.19;78.89;101632.47;4993683;28;20042;-81
2023/10/04 04:00:45;;;;;;;2.38;0.80;;;;;;;9.50;77.57;101628.41;5000098;28;20057;-82
2023/10/04 04:03:12;;;;;;;1.48;0.57;;;;;;;9.30;78.24;101620.34;4992476;28;20136;-81
2023/10/04 04:05:42;;;;;;;2.22;0.63;;;;;;;9.29;77.90;101629.06;4998937;28;20050;-81
2023/10/04 04:08:10;;;;;;;3.35;0.80;;;;;;;9.36;78.20;101630.88;4992393;28;20049;-86
2023/10/04 04:10:37;;;;;;;1.83;0.57;;;;;;;9.49;77.86;101625.75;4990587;28;20117;-82
2023/10/04 04:13:05;;;;;;;3.15;0.98;;;;;;;9.24;78.62;101625.53;5001699;28;20046;-82
2023/10/04 04:15:36;;;;;;;3.13;0.95;;;;;;;9.34;78.36;101621.25;4995868;28;20097;-81
2023/10/04 04:18:06;;;;;;;3.78;1.05;;;;;;;9.35;78.31;101631.72;4996183;28;20049;-84
2023/10/04 04:20:35;;;;;;;2.35;0.90;;;;;;;9.29;78.58;101634.31;4991506;28;20050;-82
2023/10/04 04:23:05;;;;;;;2.67;0.77;;;;;;;9.28;78.84;101636.91;4997969;28;20465;-82
2023/10/04 04:25:33;;;;;;;2.90;0.77;;;;;;;9.43;78.64;101644.03;4990007;28;20136;-82
2023/10/04 04:28:02;;;;;;;4.22;0.93;;;;;;;9.45;78.21;101637.94;4991683;28;20046;-81
2023/10/04 04:30:31;;;;;;;5.18;0.82;;;;;;;9.40;78.55;101637.03;4971010;28;20058;-82
2023/10/04 04:33:01;;;;;;;2.28;0.98;;;;;;;9.41;77.87;101646.63;4991886;28;20154;-83
2023/10/04 04:38:17;;;;;;;1.77;0.77;;;;;;;9.19;79.02;101638.56;4982739;28;20057;-83
2023/10/04 04:40:47;;;;;;;4.15;0.80;;;;;;;9.11;79.17;101636.75;4975802;28;20053;-82
2023/10/04 04:45:50;;;;;;;1.80;0.90;;;;;;;9.16;79.01;101635.06;4976878;28;20050;-85
2023/10/04 04:48:18;;;;;;;3.33;0.80;;;;;;;9.17;79.24;101639.44;4972764;28;20042;-82
2023/10/04 04:50:48;;;;;;;2.70;0.80;;;;;;;9.03;79.79;101636.69;4980313;28;20050;-82
2023/10/04 04:53:18;;;;;;;1.25;0.50;;;;;;;9.14;79.75;101634.16;4974128;28;20076;-82
2023/10/04 04:55:45;;;;;;;3.13;0.70;;;;;;;9.02;79.83;101638.44;4971392;28;20053;-82
2023/10/04 04:58:14;;;;;;;2.38;0.68;;;;;;;9.04;80.05;101636.69;4978740;28;20064;-82
2023/10/04 05:00:44;;;;;;;8.13;1.15;;;;;;;9.05;79.67;101635.84;4993892;28;20054;-81
2023/10/04 05:03:11;;;;;;;2.75;0.57;;;;;;;9.05;79.83;101633.22;4992451;28;20073;-82
2023/10/04 05:05:40;;;;;;;3.00;0.98;;;;;;;9.06;79.80;101641.94;4998298;28;20061;-82
2023/10/04 05:08:06;;;;;;;3.13;1.00;;;;;;;8.93;80.39;101640.94;4997887;28;20444;-83
2023/10/04 05:10:40;;;;;;;2.92;0.82;;;;;;;8.90;80.76;101645.28;4989750;28;20046;-83
2023/10/04 05:13:13;;;;;;;3.00;0.82;;;;;;;8.77;81.04;101649.47;4998996;28;20058;-82
2023/10/04 05:15:42;;;;;;;3.55;1.13;;;;;;;8.61;81.55;101654.53;4995295;28;20073;-86
2023/10/04 05:18:16;;;;;;;1.45;0.73;;;;;;;8.48;82.20;101652.63;4988564;28;20052;-85
2023/10/04 05:20:55;;;;;;;3.83;0.90;;;;;;;8.46;82.14;101654.34;4996622;28;20058;-83
2023/10/04 05:23:24;;;;;;;2.13;0.70;;;;;;;8.39;82.53;101649.84;4980976;28;20056;-83
2023/10/04 05:25:52;;;;;;;3.53;0.88;;;;;;;8.40;82.61;101654.22;4987624;28;20054;-83
2023/10/04 05:28:19;;;;;;;3.10;1.00;;;;;;;8.33;82.79;101651.53;4993374;28;20077;-80
2023/10/04 05:30:47;;;;;;;3.40;1.15;;;;;;;8.41;82.75;101655.97;4996955;28;20057;-82
2023/10/04 05:33:15;;;;;;;1.90;0.90;;;;;;;8.41;82.54;101655.97;4993510;28;20046;-81
2023/10/04 05:35:46;;;;;;;7.97;1.67;;;;;;;8.32;82.93;101654.97;4986525;28;20077;-81
2023/10/04 05:38:14;;;;;;;2.20;1.08;;;;;;;8.32;82.97;101654.97;4977182;28;20050;-83
2023/10/04 05:40:48;;;;;;;3.58;1.00;;;;;;;8.32;83.10;101656.72;4983186;28;20038;-82
2023/10/04 05:43:16;;;;;;;3.78;1.15;;;;;;;8.30;82.93;101651.47;4992531;28;20486;-83
2023/10/04 05:45:44;;;;;;;2.35;0.90;;;;;;;8.33;82.64;101653.28;4982162;28;20054;-83
2023/10/04 05:48:12;;;;;;;3.10;0.90;;;;;;;8.29;82.42;101652.31;4986529;28;20100;-81
2023/10/04 05:50:39;;;;;;;3.28;1.20;;;;;;;8.24;82.71;101654.03;4990634;28;20054;-82
2023/10/04 05:53:07;;;;;;;4.15;0.90;;;;;;;8.25;82.54;101660.97;4983624;28;20069;-81
2023/10/04 05:55:35;;;;;;;3.15;0.90;;;;;;;8.22;82.52;101660.09;4986796;28;20080;-81
2023/10/04 05:58:07;;;;;;;4.35;1.13;;;;;;;8.13;82.90;101669.53;5003853;28;20136;-82
2023/10/04 06:00:37;;;;;;;5.40;1.40;;;;;;;8.14;82.92;101678.25;4994553;28;20050;-82
2023/10/04 06:03:11;;;;;;;2.65;0.98;;;;;;;8.25;82.89;101676.69;4991346;28;20050;-83
2023/10/04 06:05:42;;;;;;;2.33;1.35;;;;;;;8.31;82.31;101686.34;4998081;28;20054;-84
2023/10/04 06:08:12;;;;;;;4.63;0.98;;;;;;;8.30;82.10;101693.31;4977024;28;20061;-88
2023/10/04 06:10:39;;;;;;;1.98;0.90;;;;;;;8.33;82.07;101690.75;5004841;28;20053;-83
2023/10/04 06:13:11;;;;;;;2.25;1.15;;;;;;;8.19;82.73;101693.16;4999249;28;20072;-82
2023/10/04 06:15:44;;;;;;;2.15;0.75;;;;;;;8.15;82.84;101698.31;4995374;28;20056;-84
2023/10/04 06:18:13;;;;;;;2.85;0.68;;;;;;;8.15;83.62;101691.38;4986934;28;20109;-81
2023/10/04 06:20:41;;;;;;;5.28;1.55;;;;;;;8.16;83.46;101692.25;4956612;28;20096;-81
2023/10/04 06:23:09;;;;;;;3.45;1.00;;;;;;;8.24;83.33;101688.03;5001804;28;20058;-82
2023/10/04 06:25:41;;;;;;;4.85;1.13;;;;;;;8.36;82.91;101685.56;4999554;28;20428;-82
2023/10/04 06:28:11;;;;;;;2.05;0.90;;;;;;;8.46;82.84;101691.84;5004666;28;20074;-84
2023/10/04 06:30:39;;;;;;;3.38;0.90;;;;;;;8.59;82.50;101700.72;4994289;28;20061;-82
2023/10/04 06:33:10;;;;;;;2.90;0.85;;;;;;;8.75;82.03;101708.75;5004301;28;20100;-82
2023/10/04 06:35:38;;;;;;;2.20;0.90;;;;;;;8.77;81.40;101715.78;4999139;28;20053;-83
2023/10/04 06:38:08;;;;;;;1.55;0.57;;;;;;;8.83;80.92;101718.47;5003405;28;20056;-82
2023/10/04 06:40:36;;;;;;;2.95;0.80;;;;;;;8.86;81.37;101728.09;4995344;28;20052;-82
2023/10/04 06:43:05;;;;;;;2.47;0.88;;;;;;;8.99;80.85;101730.03;4999309;28;20097;-82
2023/10/04 06:45:33;;;;;;;2.15;1.02;;;;;;;8.97;81.68;101725.63;4991005;28;20064;-82
2023/10/04 06:48:02;;;;;;;3.67;1.08;;;;;;;9.11;81.35;101733.63;5002948;28;20072;-81
2023/10/04 06:50:32;;;;;;;1.38;0.60;;;;;;;9.20;81.14;101724.16;4991997;28;20054;-83
2023/10/04 06:53:02;;;;;;;3.35;0.90;;;;;;;9.38;81.13;101728.72;4997529;28;20049;-83
2023/10/04 06:55:30;;;;;;;3.47;1.13;;;;;;;9.45;81.08;101731.41;4993726;28;20053;-82
2023/10/04 06:57:57;;;;;;;3.10;0.80;;;;;;;9.59;80.91;101737.66;4983631;28;20054;-82
2023/10/04 07:00:47;;;;;;;3.33;1.05;;;;;;;9.71;80.51;101729.03;4990900;28;20065;-82
2023/10/04 07:03:13;;;;;;;2.80;0.93;;;;;;;9.96;80.16;101734.47;4993388;28;20053;-83
2023/10/04 07:05:41;;;;;;;2.42;0.77;;;;;;;10.01;79.92;101743.28;5002387;28;20049;-82
2023/10/04 07:08:12;;;;;;;2.55;0.80;;;;;;;10.09;79.40;101737.22;5001629;28;20119;-82
2023/10/04 07:10:41;;;;;;;4.70;0.73;;;;;;;10.19;79.72;101745.16;4996360;28;20065;-84
2023/10/04 07:13:08;;;;;;;2.50;0.68;;;;;;;10.48;79.30;101744.50;4999504;28;20555;-89
2023/10/04 07:15:35;;;;;;;2.92;0.80;;;;;;;10.78;77.56;101746.44;4999148;28;20053;-83
2023/10/04 07:18:07;;;;;;;4.82;1.02;;;;;;;11.01;77.57;101746.53;5000557;28;20076;-83
2023/10/04 07:20:34;;;;;;;8.15;2.10;;;;;;;11.12;77.52;101750.09;4995794;28;20049;-83
2023/10/04 07:23:07;;;;;;;2.75;0.82;;;;;;;11.22;76.98;101743.06;4998232;28;20046;-83
2023/10/04 07:25:37;;;;;;;2.30;0.80;;;;;;;11.41;75.49;101751.91;4983010;28;20140;-85
2023/10/04 07:28:08;;;;;;;5.40;1.25;;;;;;;11.55;75.99;101762.44;4988462;28;20041;-84
2023/10/04 07:30:37;;;;;;;4.68;0.90;;;;;;;11.60;74.96;101765.06;4994077;28;20080;-83
2023/10/04 07:33:07;;;;;;;1.70;0.60;;;;;;;11.66;74.54;101759.84;4999367;28;20104;-86
2023/10/04 07:35:34;;;;;;;2.28;0.80;;;;;;;11.78;74.97;101761.63;4996711;28;20065;-83
2023/10/04 07:38:04;;;;;;;17.85;3.35;;;;;;;11.82;75.74;101764.25;4999779;28;20060;-85
2023/10/04 07:40:31;;;;;;;4.55;1.95;;;;;;;11.87;74.71;101758.97;4994948;28;20038;-84
2023/10/04 07:42:59;;;;;;;3.15;0.77;;;;;;;11.91;74.58;101765.13;5000189;28;20056;-83
2023/10/04 07:45:28;;;;;;;2.67;0.80;;;;;;;11.93;74.56;101753.75;4992540;28;20214;-84
2023/10/04 07:47:57;;;;;;;3.80;0.80;;;;;;;12.06;74.25;101754.63;4997334;28;20113;-83
2023/10/04 07:50:25;;;;;;;4.00;0.93;;;;;;;12.08;74.53;101763.41;4992444;28;20072;-85
2023/10/04 07:52:58;;;;;;;3.53;0.82;;;;;;;12.16;74.00;101766.91;4978511;28;20053;-81
2023/10/04 07:55:26;;;;;;;5.88;0.90;;;;;;;12.25;74.37;101773.94;4996046;28;20052;-84
2023/10/04 07:58:02;;;;;;;3.65;0.85;;;;;;;12.31;72.99;101766.03;4981749;28;20133;-81
2023/10/04 08:00:30;;;;;;;2.28;0.82;;;;;;;12.55;73.62;101766.00;4992475;28;20104;-82
2023/10/04 08:02:57;;;;;;;4.28;0.82;;;;;;;12.56;73.06;101767.72;5001378;28;20053;-81
2023/10/04 08:05:27;;;;;;;4.75;1.20;;;;;;;12.65;72.54;101759.81;4996275;28;20088;-83
2023/10/04 08:07:56;;;;;;;4.90;0.90;;;;;;;12.68;72.59;101751.91;5001044;28;20046;-83
2023/10/04 08:10:25;;;;;;;5.50;0.93;;;;;;;12.73;72.73;101752.78;4997289;28;20081;-81
2023/10/04 08:12:54;;;;;;;3.58;0.90;;;;;;;12.81;72.51;101758.00;4998063;28;20402;-82
2023/10/04 08:15:25;;;;;;;3.03;0.98;;;;;;;12.90;71.34;101754.47;4981167;28;20120;-82
2023/10/04 08:17:56;;;;;;;1.92;0.68;;;;;;;12.96;71.28;101750.06;4999298;28;20053;-81
2023/10/04 08:20:29;;;;;;;4.18;1.30;;;;;;;13.00;70.59;101746.50;4988991;28;20066;-81
2023/10/04 08:23:02;;;;;;;4.28;0.82;;;;;;;13.22;71.62;101752.56;4995003;28;20053;-81
2023/10/04 08:25:29;;;;;;;3.13;0.67;;;;;;;13.20;69.88;101749.06;4984159;28;20213;-81
2023/10/04 08:27:56;;;;;;;2.75;0.68;;;;;;;13.21;70.36;101749.94;4980892;28;20070;-82
2023/10/04 08:30:23;;;;;;;3.95;0.80;;;;;;;13.17;69.55;101748.22;4984118;28;20136;-81
2023/10/04 08:32:51;;;;;;;5.43;0.93;;;;;;;13.38;69.72;101752.50;4999716;28;20165;-82
2023/10/04 08:35:23;;;;;;;5.40;1.02;;;;;;;13.43;69.53;101758.63;4995552;28;20050;-83
2023/10/04 08:37:55;;;;;;;2.20;0.55;;;;;;;13.47;69.53;101763.00;4994654;28;20046;-82
2023/10/04 08:40:23;;;;;;;3.55;0.88;;;;;;;13.62;69.32;101761.16;4992831;28;20042;-83
2023/10/04 08:42:50;;;;;;;2.83;0.90;;;;;;;13.59;68.82;101763.81;5001966;28;20050;-84
2023/10/04 08:45:19;;;;;;;2.92;1.05;;;;;;;13.51;68.98;101764.75;4996187;28;20046;-81
2023/10/04 08:47:55;;;;;;;3.97;0.85;;;;;;;13.76;69.12;101763.69;5000703;28;20053;-82
2023/10/04 08:50:41;;;;;;;4.38;1.17;;;;;;;13.73;68.58;101762.84;4977075;28;20077;-83
2023/10/04 08:53:11;;;;;;;4.68;1.45;;;;;;;13.71;67.83;101761.09;4956881;28;20101;-88
2023/10/04 08:55:42;;;;;;;5.22;1.00;;;;;;;13.76;68.10;101768.97;4988547;28;20124;-82
2023/10/04 08:58:09;;;;;;;4.57;0.70;;;;;;;13.86;68.21;101771.53;4958446;28;20129;-86
2023/10/04 09:00:43;;;;;;;1.83;0.80;;;;;;;13.86;66.89;101766.25;4972177;28;20497;-81
2023/10/04 09:03:12;;;;;;;2.45;0.75;;;;;;;13.91;66.66;101764.44;4971096;28;20050;-81
2023/10/04 09:05:46;;;;;;;3.15;1.00;;;;;;;13.99;66.65;101760.88;5000889;28;20565;-81
2023/10/04 09:08:14;;;;;;;;;;;;;;;13.99;65.91;101759.13;4996406;28;20042;-83
2023/10/04 09:10:42;;;;;;;4.75;1.25;;;;;;;14.04;65.47;101759.09;4996801;28;19928;-84
2023/10/04 09:13:10;;;;;;;1.65;0.80;;;;;;;14.05;66.69;101756.44;4993461;28;20073;-87
2023/10/04 09:15:37;;;;;;;1.67;0.80;;;;;;;14.19;65.74;101752.78;5001044;28;20056;-85
2023/10/04 09:18:05;;;;;;;4.70;0.90;;;;;;;14.22;65.75;101758.03;4981849;28;20050;-83
2023/10/04 09:20:32;;;;;;;6.30;1.17;;;;;;;14.26;65.36;101751.84;4988327;28;20057;-83
2023/10/04 09:23:02;;;;;;;41.25;16.40;;;;;;;14.78;66.45;101750.44;4999999;28;20052;-84
2023/10/04 09:25:36;;;;;;;5.90;1.42;;;;;;;14.74;64.60;101751.38;4994834;28;20191;-83
2023/10/04 09:28:08;;;;;;;3.67;0.90;;;;;;;14.49;64.38;101748.97;4974177;28;20401;-84
2023/10/04 09:30:36;;;;;;;3.58;1.00;;;;;;;14.66;64.72;101751.47;4971519;28;20057;-84
2023/10/04 09:33:10;;;;;;;2.45;1.00;;;;;;;14.81;65.33;101747.75;4996152;28;20050;-85
2023/10/04 09:35:44;;;;;;;4.65;1.20;;;;;;;14.83;63.45;101751.28;4965748;28;20054;-84
2023/10/04 09:38:15;;;;;;;2.75;0.75;;;;;;;14.78;63.35;101753.09;4981886;28;20054;-84
2023/10/04 09:40:51;;;;;;;3.78;1.02;;;;;;;14.87;61.98;101752.97;5001961;28;20064;-84
2023/10/04 09:43:40;;;;;;;1.73;0.75;;;;;;;14.94;62.69;101744.06;4987278;28;20046;-90
2023/10/04 09:46:12;;;;;;;6.60;1.13;;;;;;;15.16;62.10;101745.56;5000534;28;20042;-88
2023/10/04 09:48:43;;;;;;;3.40;1.38;;;;;;;14.98;62.00;101736.13;4994669;28;20056;-84
2023/10/04 09:51:12;;;;;;;9.07;0.98;;;;;;;15.30;61.49;101741.84;4990771;28;20041;-83
2023/10/04 09:53:40;;;;;;;2.90;0.80;;;;;;;15.39;61.15;101739.97;4999040;28;20072;-83
2023/10/04 09:56:11;;;;;;;4.53;0.60;;;;;;;15.58;60.31;101736.16;4983431;28;20050;-82
2023/10/04 09:58:52;;;;;;;2.95;0.90;;;;;;;15.64;59.88;101724.59;4995005;28;20128;-83
2023/10/04 10:01:19;;;;;;;7.07;0.60;;;;;;;16.23;60.15;101734.25;4995939;28;20066;-83
2023/10/04 10:03:56;;;;;;;7.28;1.05;;;;;;;16.20;59.93;101735.16;4998756;28;20062;-82
2023/10/04 10:06:32;;;;;;;6.78;1.33;;;;;;;16.40;58.60;101742.75;4990604;28;20062;-84
2023/10/04 10:09:02;;;;;;;2.25;1.02;;;;;;;16.52;58.16;101738.97;4995126;28;20046;-83
2023/10/04 10:11:30;;;;;;;3.53;0.82;;;;;;;16.79;59.72;101734.91;4993533;28;20077;-83
2023/10/04 10:13:57;;;;;;;3.60;0.80;;;;;;;16.40;57.33;101736.59;4985257;28;20060;-83
2023/10/04 10:16:24;;;;;;;5.00;1.42;;;;;;;16.76;58.19;101728.81;4978384;28;20060;-86
2023/10/04 10:18:52;;;;;;;3.88;0.80;;;;;;;16.85;56.67;101728.63;4977865;28;20108;-83
2023/10/04 10:21:19;;;;;;;3.78;1.33;;;;;;;16.84;57.05;101733.06;4976713;28;20053;-83
2023/10/04 10:24:03;;;;;;;3.60;1.10;;;;;;;16.66;55.53;101728.13;4983284;28;20046;-85
2023/10/04 10:26:33;;;;;;;3.15;0.90;;;;;;;16.31;54.69;101727.03;4996119;28;20421;-85
2023/10/04 10:29:04;;;;;;;2.70;0.80;;;;;;;16.76;55.15;101719.06;4996103;28;20050;-84
2023/10/04 10:31:31;;;;;;;9.98;1.10;;;;;;;17.08;54.59;101714.91;4986317;28;20052;-84
2023/10/04 10:34:02;;;;;;;3.70;0.80;;;;;;;17.14;54.22;101713.91;4977404;28;20053;-83
2023/10/04 10:36:32;;;;;;;4.95;0.70;;;;;;;17.48;53.81;101713.09;4963222;28;20433;-83
2023/10/04 10:39:00;;;;;;;2.28;0.50;;;;;;;17.20;54.51;101714.63;4973280;28;20108;-85
2023/10/04 10:41:32;;;;;;;2.30;0.60;;;;;;;17.02;54.00;101715.91;4960320;28;20417;-84
2023/10/04 10:44:11;;;;;;;2.42;0.70;;;;;;;17.03;53.47;101712.34;5002866;28;20053;-84
2023/10/04 10:46:55;;;;;;;3.55;0.90;;;;;;;17.26;54.66;101712.75;4996356;28;20054;-84
2023/10/04 10:49:40;;;;;;;1.83;0.63;;;;;;;17.77;55.36;101716.84;4986919;28;20158;-84
2023/10/04 10:52:27;;;;;;;2.20;0.80;;;;;;;17.54;54.26;101707.69;4998928;28;20053;-89
2023/10/04 10:54:56;;;;;;;2.92;0.80;;;;;;;16.95;52.77;101702.81;4976555;28;20054;-83
2023/10/04 10:57:24;;;;;;;3.40;0.85;;;;;;;16.82;53.59;101702.19;4976750;28;20054;-83
2023/10/04 10:59:55;;;;;;;1.63;0.50;;;;;;;16.74;53.90;101704.09;4990445;28;20060;-84
2023/10/04 11:02:24;;;;;;;1.48;0.70;;;;;;;16.84;54.31;101706.53;4996949;28;20050;-83
2023/10/04 11:04:52;;;;;;;2.70;0.68;;;;;;;17.11;52.66;101700.72;4984605;28;20041;-84
2023/10/04 11:07:21;;;;;;;2.33;0.80;;;;;;;17.23;52.11;101702.22;4997948;28;20046;-83
2023/10/04 11:09:52;;;;;;;4.35;0.82;;;;;;;17.73;51.08;101706.28;5003814;28;20077;-83
2023/10/04 11:12:21;;;;;;;4.72;0.93;;;;;;;17.86;50.40;101706.00;4990917;28;20046;-85
2023/10/04 11:14:52;;;;;;;4.10;0.80;;;;;;;17.92;49.53;101703.22;4989107;28;20083;-84
2023/10/04 11:17:22;;;;;;;2.60;0.43;;;;;;;18.40;48.91;101699.28;4999044;28;20137;-85
2023/10/04 11:19:52;;;;;;;2.75;0.60;;;;;;;18.60;49.19;101696.94;4965523;28;20502;-84
2023/10/04 11:22:22;;;;;;;2.90;0.70;;;;;;;18.86;48.18;101689.13;4993959;28;20148;-84
2023/10/04 11:24:50;;;;;;;2.85;0.80;;;;;;;18.68;47.93;101688.72;4987398;28;20054;-85
2023/10/04 11:27:22;;;;;;;2.53;0.90;;;;;;;19.10;48.40;101685.75;4946952;28;20044;-84
2023/10/04 11:29:50;;;;;;;2.17;1.00;;;;;;;19.26;47.32;101679.91;4971122;28;20501;-84
2023/10/04 11:32:17;;;;;;;2.28;1.00;;;;;;;18.91;47.67;101673.91;4952071;28;20125;-84
2023/10/04 11:34:45;;;;;;;3.10;0.88;;;;;;;19.17;46.90;101680.22;4975021;28;20501;-85
2023/10/04 11:37:13;;;;;;;4.75;1.00;;;;;;;19.89;47.34;101669.03;4992324;28;20078;-84
2023/10/04 11:39:44;;;;;;;3.22;1.20;;;;;;;19.58;46.77;101659.38;4968689;28;20115;-84
2023/10/04 11:42:22;;;;;;;3.33;1.15;;;;;;;18.87;48.82;101661.63;4981199;28;20053;-86
2023/10/04 11:44:49;;;;;;;6.30;1.02;;;;;;;18.76;47.97;101654.81;4984114;28;20056;-84
2023/10/04 11:47:26;;;;;;;2.78;1.08;;;;;;;19.05;48.66;101661.06;4995620;28;20045;-86
2023/10/04 11:49:55;;;;;;;3.53;0.90;;;;;;;18.97;45.65;101663.06;5001126;28;20096;-87